sensor_id;sensor_type;location;lat;lon;timestamp;P1;durP1;ratioP1;P2;durP2;ratioP2
73599;SDS011;61877;48.246;9.220;2022-12-18T00:00:40;44.60;;;21.10;;
73599;SDS011;61877;48.246;9.220;2022-12-18T00:03:05;43.63;;;20.00;;
73599;SDS011;61877;48.246;9.220;2022-12-18T00:05:31;42.90;;;20.05;;
73599;SDS011;61877;48.246;9.220;2022-12-18T00:07:56;46.70;;;20.50;;
73599;SDS011;61877;48.246;9.220;2022-12-18T00:10:22;41.20;;;18.20;;
73599;SDS011;61877;48.246;9.220;2022-12-18T00:12:47;44.17;;;19.63;;
73599;SDS011;61877;48.246;9.220;2022-12-18T00:15:12;39.95;;;18.35;;
73599;SDS011;61877;48.246;9.220;2022-12-18T00:17:39;42.23;;;18.47;;
73599;SDS011;61877;48.246;9.220;2022-12-18T00:20:05;39.28;;;18.35;;
73599;SDS011;61877;48.246;9.220;2022-12-18T00:22:31;42.45;;;19.25;;
73599;SDS011;61877;48.246;9.220;2022-12-18T00:24:57;42.77;;;18.43;;
73599;SDS011;61877;48.246;9.220;2022-12-18T00:27:22;41.93;;;18.53;;
73599;SDS011;61877;48.246;9.220;2022-12-18T00:29:48;41.63;;;17.47;;
73599;SDS011;61877;48.246;9.220;2022-12-18T00:32:13;41.55;;;18.75;;
73599;SDS011;61877;48.246;9.220;2022-12-18T00:34:40;39.43;;;18.17;;
73599;SDS011;61877;48.246;9.220;2022-12-18T00:37:06;39.60;;;18.05;;
73599;SDS011;61877;48.246;9.220;2022-12-18T00:39:31;45.40;;;19.10;;
73599;SDS011;61877;48.246;9.220;2022-12-18T00:41:57;42.47;;;18.42;;
73599;SDS011;61877;48.246;9.220;2022-12-18T00:44:22;40.63;;;17.73;;
73599;SDS011;61877;48.246;9.220;2022-12-18T00:46:48;44.20;;;19.10;;
73599;SDS011;61877;48.246;9.220;2022-12-18T00:49:14;45.00;;;19.02;;
73599;SDS011;61877;48.246;9.220;2022-12-18T00:51:41;40.40;;;17.17;;
73599;SDS011;61877;48.246;9.220;2022-12-18T00:54:07;39.58;;;17.65;;
73599;SDS011;61877;48.246;9.220;2022-12-18T00:56:32;41.72;;;18.27;;
73599;SDS011;61877;48.246;9.220;2022-12-18T00:59:00;41.17;;;17.77;;
73599;SDS011;61877;48.246;9.220;2022-12-18T01:01:25;40.42;;;18.05;;
73599;SDS011;61877;48.246;9.220;2022-12-18T01:03:51;43.40;;;17.57;;
73599;SDS011;61877;48.246;9.220;2022-12-18T01:06:16;42.33;;;18.90;;
73599;SDS011;61877;48.246;9.220;2022-12-18T01:08:43;41.87;;;17.90;;
73599;SDS011;61877;48.246;9.220;2022-12-18T01:11:09;44.25;;;19.15;;
73599;SDS011;61877;48.246;9.220;2022-12-18T01:13:37;43.17;;;18.33;;
73599;SDS011;61877;48.246;9.220;2022-12-18T01:16:02;41.23;;;18.30;;
73599;SDS011;61877;48.246;9.220;2022-12-18T01:18:28;40.75;;;17.98;;
73599;SDS011;61877;48.246;9.220;2022-12-18T01:20:53;41.50;;;17.80;;
73599;SDS011;61877;48.246;9.220;2022-12-18T01:23:19;40.03;;;17.40;;
73599;SDS011;61877;48.246;9.220;2022-12-18T01:25:46;42.20;;;17.52;;
73599;SDS011;61877;48.246;9.220;2022-12-18T01:28:11;38.57;;;16.90;;
73599;SDS011;61877;48.246;9.220;2022-12-18T01:30:36;40.17;;;17.08;;
73599;SDS011;61877;48.246;9.220;2022-12-18T01:33:03;34.40;;;14.30;;
73599;SDS011;61877;48.246;9.220;2022-12-18T01:35:32;33.47;;;14.43;;
73599;SDS011;61877;48.246;9.220;2022-12-18T01:37:57;36.63;;;14.65;;
73599;SDS011;61877;48.246;9.220;2022-12-18T01:40:23;35.47;;;14.33;;
73599;SDS011;61877;48.246;9.220;2022-12-18T01:42:50;35.27;;;13.70;;
73599;SDS011;61877;48.246;9.220;2022-12-18T01:45:23;33.05;;;13.48;;
73599;SDS011;61877;48.246;9.220;2022-12-18T01:47:51;32.92;;;14.20;;
73599;SDS011;61877;48.246;9.220;2022-12-18T01:50:19;37.78;;;15.50;;
73599;SDS011;61877;48.246;9.220;2022-12-18T01:52:49;34.28;;;14.75;;
73599;SDS011;61877;48.246;9.220;2022-12-18T01:55:19;34.83;;;14.70;;
73599;SDS011;61877;48.246;9.220;2022-12-18T01:57:47;37.05;;;15.50;;
73599;SDS011;61877;48.246;9.220;2022-12-18T02:00:16;33.65;;;14.00;;
73599;SDS011;61877;48.246;9.220;2022-12-18T02:02:44;33.90;;;13.68;;
73599;SDS011;61877;48.246;9.220;2022-12-18T02:05:11;35.38;;;14.52;;
73599;SDS011;61877;48.246;9.220;2022-12-18T02:07:42;33.43;;;14.13;;
73599;SDS011;61877;48.246;9.220;2022-12-18T02:10:15;33.40;;;14.85;;
73599;SDS011;61877;48.246;9.220;2022-12-18T02:12:48;31.35;;;13.55;;
73599;SDS011;61877;48.246;9.220;2022-12-18T02:15:23;36.53;;;14.60;;
73599;SDS011;61877;48.246;9.220;2022-12-18T02:17:56;37.67;;;14.32;;
73599;SDS011;61877;48.246;9.220;2022-12-18T02:20:28;36.50;;;14.73;;
73599;SDS011;61877;48.246;9.220;2022-12-18T02:23:01;42.88;;;15.60;;
73599;SDS011;61877;48.246;9.220;2022-12-18T02:25:43;36.28;;;14.05;;
73599;SDS011;61877;48.246;9.220;2022-12-18T02:28:33;36.08;;;14.23;;
73599;SDS011;61877;48.246;9.220;2022-12-18T02:31:02;37.30;;;14.68;;
73599;SDS011;61877;48.246;9.220;2022-12-18T02:33:32;37.30;;;15.93;;
73599;SDS011;61877;48.246;9.220;2022-12-18T02:35:59;34.78;;;14.60;;
73599;SDS011;61877;48.246;9.220;2022-12-18T02:38:26;36.42;;;14.73;;
73599;SDS011;61877;48.246;9.220;2022-12-18T02:40:53;35.92;;;14.80;;
73599;SDS011;61877;48.246;9.220;2022-12-18T02:43:20;37.22;;;15.10;;
73599;SDS011;61877;48.246;9.220;2022-12-18T02:45:48;38.40;;;14.17;;
73599;SDS011;61877;48.246;9.220;2022-12-18T02:48:15;36.58;;;15.15;;
73599;SDS011;61877;48.246;9.220;2022-12-18T02:50:44;36.80;;;14.77;;
73599;SDS011;61877;48.246;9.220;2022-12-18T02:53:14;38.53;;;15.37;;
73599;SDS011;61877;48.246;9.220;2022-12-18T02:55:49;37.75;;;15.43;;
73599;SDS011;61877;48.246;9.220;2022-12-18T02:58:27;33.60;;;14.07;;
73599;SDS011;61877;48.246;9.220;2022-12-18T03:01:02;38.78;;;14.60;;
73599;SDS011;61877;48.246;9.220;2022-12-18T03:03:36;40.67;;;16.00;;
73599;SDS011;61877;48.246;9.220;2022-12-18T03:06:07;37.07;;;14.67;;
73599;SDS011;61877;48.246;9.220;2022-12-18T03:08:38;38.10;;;14.50;;
73599;SDS011;61877;48.246;9.220;2022-12-18T03:11:08;38.17;;;15.35;;
73599;SDS011;61877;48.246;9.220;2022-12-18T03:13:35;34.95;;;14.55;;
73599;SDS011;61877;48.246;9.220;2022-12-18T03:16:06;38.55;;;15.43;;
73599;SDS011;61877;48.246;9.220;2022-12-18T03:18:35;33.37;;;13.87;;
73599;SDS011;61877;48.246;9.220;2022-12-18T03:21:06;39.58;;;14.80;;
73599;SDS011;61877;48.246;9.220;2022-12-18T03:23:36;37.08;;;14.20;;
73599;SDS011;61877;48.246;9.220;2022-12-18T03:26:06;37.75;;;14.55;;
73599;SDS011;61877;48.246;9.220;2022-12-18T03:28:35;37.38;;;15.55;;
73599;SDS011;61877;48.246;9.220;2022-12-18T03:31:06;35.63;;;14.40;;
73599;SDS011;61877;48.246;9.220;2022-12-18T03:33:36;35.92;;;14.85;;
73599;SDS011;61877;48.246;9.220;2022-12-18T03:36:06;40.10;;;14.18;;
73599;SDS011;61877;48.246;9.220;2022-12-18T03:38:31;35.33;;;13.83;;
73599;SDS011;61877;48.246;9.220;2022-12-18T03:40:59;36.90;;;15.57;;
73599;SDS011;61877;48.246;9.220;2022-12-18T03:43:31;36.75;;;14.90;;
73599;SDS011;61877;48.246;9.220;2022-12-18T03:46:06;33.17;;;14.57;;
73599;SDS011;61877;48.246;9.220;2022-12-18T03:48:37;33.63;;;14.17;;
73599;SDS011;61877;48.246;9.220;2022-12-18T03:51:09;35.75;;;13.30;;
73599;SDS011;61877;48.246;9.220;2022-12-18T03:53:43;37.13;;;14.35;;
73599;SDS011;61877;48.246;9.220;2022-12-18T03:56:14;34.88;;;13.50;;
73599;SDS011;61877;48.246;9.220;2022-12-18T03:58:41;31.40;;;12.65;;
73599;SDS011;61877;48.246;9.220;2022-12-18T04:01:10;30.90;;;13.33;;
73599;SDS011;61877;48.246;9.220;2022-12-18T04:03:39;35.70;;;14.55;;
73599;SDS011;61877;48.246;9.220;2022-12-18T04:06:07;32.63;;;13.77;;
73599;SDS011;61877;48.246;9.220;2022-12-18T04:08:33;33.92;;;14.32;;
73599;SDS011;61877;48.246;9.220;2022-12-18T04:10:59;37.40;;;14.15;;
73599;SDS011;61877;48.246;9.220;2022-12-18T04:13:27;33.77;;;13.83;;
73599;SDS011;61877;48.246;9.220;2022-12-18T04:15:54;38.53;;;14.60;;
73599;SDS011;61877;48.246;9.220;2022-12-18T04:18:20;35.67;;;14.33;;
73599;SDS011;61877;48.246;9.220;2022-12-18T04:20:46;40.60;;;14.80;;
73599;SDS011;61877;48.246;9.220;2022-12-18T04:23:11;38.03;;;13.70;;
73599;SDS011;61877;48.246;9.220;2022-12-18T04:25:37;33.40;;;13.43;;
73599;SDS011;61877;48.246;9.220;2022-12-18T04:28:02;35.10;;;14.30;;
73599;SDS011;61877;48.246;9.220;2022-12-18T04:30:28;38.57;;;13.60;;
73599;SDS011;61877;48.246;9.220;2022-12-18T04:32:53;36.75;;;13.93;;
73599;SDS011;61877;48.246;9.220;2022-12-18T04:35:20;35.80;;;13.93;;
73599;SDS011;61877;48.246;9.220;2022-12-18T04:37:45;37.70;;;14.50;;
73599;SDS011;61877;48.246;9.220;2022-12-18T04:40:11;37.70;;;14.50;;
73599;SDS011;61877;48.246;9.220;2022-12-18T04:42:37;37.27;;;14.20;;
73599;SDS011;61877;48.246;9.220;2022-12-18T04:45:04;35.10;;;13.53;;
73599;SDS011;61877;48.246;9.220;2022-12-18T04:47:30;37.70;;;14.20;;
73599;SDS011;61877;48.246;9.220;2022-12-18T04:49:56;39.35;;;14.80;;
73599;SDS011;61877;48.246;9.220;2022-12-18T04:52:22;29.53;;;13.07;;
73599;SDS011;61877;48.246;9.220;2022-12-18T04:54:48;31.45;;;13.57;;
73599;SDS011;61877;48.246;9.220;2022-12-18T04:57:13;36.87;;;13.83;;
73599;SDS011;61877;48.246;9.220;2022-12-18T04:59:39;33.60;;;13.97;;
73599;SDS011;61877;48.246;9.220;2022-12-18T05:02:04;33.73;;;14.03;;
73599;SDS011;61877;48.246;9.220;2022-12-18T05:04:30;38.60;;;14.20;;
73599;SDS011;61877;48.246;9.220;2022-12-18T05:06:55;34.63;;;13.53;;
73599;SDS011;61877;48.246;9.220;2022-12-18T05:09:22;36.87;;;14.07;;
73599;SDS011;61877;48.246;9.220;2022-12-18T05:11:48;40.13;;;14.88;;
73599;SDS011;61877;48.246;9.220;2022-12-18T05:14:13;37.17;;;14.60;;
73599;SDS011;61877;48.246;9.220;2022-12-18T05:16:38;41.80;;;15.13;;
73599;SDS011;61877;48.246;9.220;2022-12-18T05:19:04;82.88;;;22.13;;
73599;SDS011;61877;48.246;9.220;2022-12-18T05:21:29;40.27;;;15.23;;
73599;SDS011;61877;48.246;9.220;2022-12-18T05:23:55;39.70;;;14.43;;
73599;SDS011;61877;48.246;9.220;2022-12-18T05:26:21;44.60;;;15.80;;
73599;SDS011;61877;48.246;9.220;2022-12-18T05:28:47;40.35;;;15.05;;
73599;SDS011;61877;48.246;9.220;2022-12-18T05:31:12;45.10;;;15.73;;
73599;SDS011;61877;48.246;9.220;2022-12-18T05:33:38;38.35;;;15.02;;
73599;SDS011;61877;48.246;9.220;2022-12-18T05:36:04;39.23;;;14.63;;
73599;SDS011;61877;48.246;9.220;2022-12-18T05:38:32;33.92;;;13.95;;
73599;SDS011;61877;48.246;9.220;2022-12-18T05:40:59;36.80;;;15.45;;
73599;SDS011;61877;48.246;9.220;2022-12-18T05:43:26;35.97;;;14.03;;
73599;SDS011;61877;48.246;9.220;2022-12-18T05:45:52;35.88;;;14.43;;
73599;SDS011;61877;48.246;9.220;2022-12-18T05:48:18;38.42;;;14.77;;
73599;SDS011;61877;48.246;9.220;2022-12-18T05:50:45;37.78;;;14.55;;
73599;SDS011;61877;48.246;9.220;2022-12-18T05:53:12;38.30;;;14.60;;
73599;SDS011;61877;48.246;9.220;2022-12-18T05:55:39;35.80;;;13.75;;
73599;SDS011;61877;48.246;9.220;2022-12-18T05:58:05;39.47;;;14.77;;
73599;SDS011;61877;48.246;9.220;2022-12-18T06:00:33;37.85;;;14.02;;
73599;SDS011;61877;48.246;9.220;2022-12-18T06:03:00;38.10;;;13.45;;
73599;SDS011;61877;48.246;9.220;2022-12-18T06:05:25;34.10;;;13.60;;
73599;SDS011;61877;48.246;9.220;2022-12-18T06:07:51;38.03;;;14.40;;
73599;SDS011;61877;48.246;9.220;2022-12-18T06:10:17;37.28;;;14.10;;
73599;SDS011;61877;48.246;9.220;2022-12-18T06:12:43;36.67;;;14.63;;
73599;SDS011;61877;48.246;9.220;2022-12-18T06:15:09;34.28;;;13.43;;
73599;SDS011;61877;48.246;9.220;2022-12-18T06:17:36;37.88;;;14.32;;
73599;SDS011;61877;48.246;9.220;2022-12-18T06:20:02;36.92;;;13.40;;
73599;SDS011;61877;48.246;9.220;2022-12-18T06:22:30;36.20;;;13.30;;
73599;SDS011;61877;48.246;9.220;2022-12-18T06:24:56;29.13;;;12.73;;
73599;SDS011;61877;48.246;9.220;2022-12-18T06:27:22;31.90;;;13.25;;
73599;SDS011;61877;48.246;9.220;2022-12-18T06:29:47;37.13;;;13.07;;
73599;SDS011;61877;48.246;9.220;2022-12-18T06:32:12;35.90;;;12.93;;
73599;SDS011;61877;48.246;9.220;2022-12-18T06:34:39;38.77;;;14.73;;
73599;SDS011;61877;48.246;9.220;2022-12-18T06:37:05;39.15;;;14.77;;
73599;SDS011;61877;48.246;9.220;2022-12-18T06:39:30;38.17;;;14.23;;
73599;SDS011;61877;48.246;9.220;2022-12-18T06:41:56;39.35;;;14.07;;
73599;SDS011;61877;48.246;9.220;2022-12-18T06:44:21;35.73;;;13.40;;
73599;SDS011;61877;48.246;9.220;2022-12-18T06:46:47;39.50;;;13.47;;
73599;SDS011;61877;48.246;9.220;2022-12-18T06:49:12;32.78;;;13.27;;
73599;SDS011;61877;48.246;9.220;2022-12-18T06:51:39;41.77;;;13.47;;
73599;SDS011;61877;48.246;9.220;2022-12-18T06:54:05;34.17;;;13.95;;
73599;SDS011;61877;48.246;9.220;2022-12-18T06:56:30;36.63;;;13.90;;
73599;SDS011;61877;48.246;9.220;2022-12-18T06:58:56;35.47;;;14.10;;
73599;SDS011;61877;48.246;9.220;2022-12-18T07:01:21;38.83;;;14.60;;
73599;SDS011;61877;48.246;9.220;2022-12-18T07:03:47;35.97;;;13.60;;
73599;SDS011;61877;48.246;9.220;2022-12-18T07:06:18;32.07;;;12.93;;
73599;SDS011;61877;48.246;9.220;2022-12-18T07:08:46;36.55;;;13.00;;
73599;SDS011;61877;48.246;9.220;2022-12-18T07:11:13;37.17;;;13.77;;
73599;SDS011;61877;48.246;9.220;2022-12-18T07:13:39;36.70;;;13.88;;
73599;SDS011;61877;48.246;9.220;2022-12-18T07:16:05;37.87;;;13.83;;
73599;SDS011;61877;48.246;9.220;2022-12-18T07:18:32;36.75;;;14.18;;
73599;SDS011;61877;48.246;9.220;2022-12-18T07:20:57;40.60;;;13.77;;
73599;SDS011;61877;48.246;9.220;2022-12-18T07:23:23;38.30;;;14.00;;
73599;SDS011;61877;48.246;9.220;2022-12-18T07:25:50;36.53;;;13.80;;
73599;SDS011;61877;48.246;9.220;2022-12-18T07:28:15;39.27;;;13.10;;
73599;SDS011;61877;48.246;9.220;2022-12-18T07:30:40;39.25;;;12.50;;
73599;SDS011;61877;48.246;9.220;2022-12-18T07:33:06;37.63;;;12.50;;
73599;SDS011;61877;48.246;9.220;2022-12-18T07:35:32;42.53;;;14.00;;
73599;SDS011;61877;48.246;9.220;2022-12-18T07:37:57;42.13;;;14.18;;
73599;SDS011;61877;48.246;9.220;2022-12-18T07:40:23;44.10;;;16.30;;
73599;SDS011;61877;48.246;9.220;2022-12-18T07:42:50;38.97;;;14.67;;
73599;SDS011;61877;48.246;9.220;2022-12-18T07:45:15;37.83;;;14.27;;
73599;SDS011;61877;48.246;9.220;2022-12-18T07:47:41;41.20;;;14.52;;
73599;SDS011;61877;48.246;9.220;2022-12-18T07:50:06;41.37;;;14.97;;
73599;SDS011;61877;48.246;9.220;2022-12-18T07:52:32;35.08;;;13.98;;
73599;SDS011;61877;48.246;9.220;2022-12-18T07:54:58;39.43;;;13.63;;
73599;SDS011;61877;48.246;9.220;2022-12-18T07:57:23;42.50;;;15.80;;
73599;SDS011;61877;48.246;9.220;2022-12-18T07:59:50;43.35;;;15.32;;
73599;SDS011;61877;48.246;9.220;2022-12-18T08:02:16;40.23;;;13.83;;
73599;SDS011;61877;48.246;9.220;2022-12-18T08:04:41;38.47;;;14.68;;
73599;SDS011;61877;48.246;9.220;2022-12-18T08:07:07;40.23;;;15.47;;
73599;SDS011;61877;48.246;9.220;2022-12-18T08:09:32;39.13;;;14.23;;
73599;SDS011;61877;48.246;9.220;2022-12-18T08:11:58;33.83;;;13.90;;
73599;SDS011;61877;48.246;9.220;2022-12-18T08:14:23;41.17;;;13.83;;
73599;SDS011;61877;48.246;9.220;2022-12-18T08:16:51;38.78;;;14.38;;
73599;SDS011;61877;48.246;9.220;2022-12-18T08:19:16;39.08;;;14.50;;
73599;SDS011;61877;48.246;9.220;2022-12-18T08:21:41;43.30;;;15.60;;
73599;SDS011;61877;48.246;9.220;2022-12-18T08:24:08;40.67;;;14.90;;
73599;SDS011;61877;48.246;9.220;2022-12-18T08:26:34;35.90;;;13.85;;
73599;SDS011;61877;48.246;9.220;2022-12-18T08:28:59;37.27;;;15.10;;
73599;SDS011;61877;48.246;9.220;2022-12-18T08:31:26;37.55;;;14.38;;
73599;SDS011;61877;48.246;9.220;2022-12-18T08:33:54;40.35;;;15.13;;
73599;SDS011;61877;48.246;9.220;2022-12-18T08:36:20;38.17;;;14.50;;
73599;SDS011;61877;48.246;9.220;2022-12-18T08:38:46;39.80;;;13.45;;
73599;SDS011;61877;48.246;9.220;2022-12-18T08:41:12;41.80;;;15.40;;
73599;SDS011;61877;48.246;9.220;2022-12-18T08:43:39;41.23;;;15.10;;
73599;SDS011;61877;48.246;9.220;2022-12-18T08:46:05;36.85;;;13.40;;
73599;SDS011;61877;48.246;9.220;2022-12-18T08:48:30;38.27;;;15.43;;
73599;SDS011;61877;48.246;9.220;2022-12-18T08:50:57;35.17;;;12.97;;
73599;SDS011;61877;48.246;9.220;2022-12-18T08:53:24;34.42;;;13.90;;
73599;SDS011;61877;48.246;9.220;2022-12-18T08:55:49;37.08;;;13.57;;
73599;SDS011;61877;48.246;9.220;2022-12-18T08:58:15;38.27;;;13.63;;
73599;SDS011;61877;48.246;9.220;2022-12-18T09:00:40;40.35;;;14.55;;
73599;SDS011;61877;48.246;9.220;2022-12-18T09:03:09;37.50;;;14.10;;
73599;SDS011;61877;48.246;9.220;2022-12-18T09:05:36;38.50;;;15.07;;
73599;SDS011;61877;48.246;9.220;2022-12-18T09:08:03;35.97;;;13.60;;
73599;SDS011;61877;48.246;9.220;2022-12-18T09:10:29;36.10;;;13.80;;
73599;SDS011;61877;48.246;9.220;2022-12-18T09:12:56;39.63;;;14.23;;
73599;SDS011;61877;48.246;9.220;2022-12-18T09:15:26;34.97;;;13.10;;
73599;SDS011;61877;48.246;9.220;2022-12-18T09:21:30;37.30;;;13.57;;
73599;SDS011;61877;48.246;9.220;2022-12-18T09:23:58;30.07;;;12.90;;
73599;SDS011;61877;48.246;9.220;2022-12-18T09:26:24;33.72;;;12.88;;
73599;SDS011;61877;48.246;9.220;2022-12-18T09:28:51;33.38;;;13.45;;
73599;SDS011;61877;48.246;9.220;2022-12-18T09:31:17;36.38;;;13.02;;
73599;SDS011;61877;48.246;9.220;2022-12-18T09:33:43;31.98;;;12.98;;
73599;SDS011;61877;48.246;9.220;2022-12-18T09:36:09;31.07;;;12.30;;
73599;SDS011;61877;48.246;9.220;2022-12-18T09:38:38;33.28;;;12.90;;
73599;SDS011;61877;48.246;9.220;2022-12-18T09:41:05;36.20;;;12.87;;
73599;SDS011;61877;48.246;9.220;2022-12-18T09:43:45;32.10;;;11.98;;
73599;SDS011;61877;48.246;9.220;2022-12-18T09:46:15;35.65;;;13.32;;
73599;SDS011;61877;48.246;9.220;2022-12-18T09:48:45;35.23;;;12.23;;
73599;SDS011;61877;48.246;9.220;2022-12-18T09:51:14;36.45;;;12.98;;
73599;SDS011;61877;48.246;9.220;2022-12-18T09:53:44;33.30;;;12.35;;
73599;SDS011;61877;48.246;9.220;2022-12-18T09:56:18;28.83;;;11.73;;
73599;SDS011;61877;48.246;9.220;2022-12-18T09:58:46;36.85;;;13.32;;
73599;SDS011;61877;48.246;9.220;2022-12-18T10:01:18;34.20;;;12.87;;
73599;SDS011;61877;48.246;9.220;2022-12-18T10:03:46;36.22;;;13.48;;
73599;SDS011;61877;48.246;9.220;2022-12-18T10:06:13;32.95;;;13.30;;
73599;SDS011;61877;48.246;9.220;2022-12-18T10:24:27;29.58;;;11.82;;
73599;SDS011;61877;48.246;9.220;2022-12-18T10:26:59;27.60;;;11.77;;
73599;SDS011;61877;48.246;9.220;2022-12-18T10:29:36;31.60;;;12.60;;
73599;SDS011;61877;48.246;9.220;2022-12-18T10:32:02;29.83;;;11.68;;
73599;SDS011;61877;48.246;9.220;2022-12-18T10:34:27;30.23;;;12.33;;
73599;SDS011;61877;48.246;9.220;2022-12-18T10:36:54;31.17;;;11.85;;
73599;SDS011;61877;48.246;9.220;2022-12-18T10:39:20;31.23;;;12.43;;
73599;SDS011;61877;48.246;9.220;2022-12-18T10:41:49;30.88;;;12.20;;
73599;SDS011;61877;48.246;9.220;2022-12-18T10:44:16;34.40;;;13.17;;
73599;SDS011;61877;48.246;9.220;2022-12-18T10:46:43;33.23;;;13.43;;
73599;SDS011;61877;48.246;9.220;2022-12-18T10:49:21;32.30;;;13.05;;
73599;SDS011;61877;48.246;9.220;2022-12-18T10:51:48;31.77;;;12.50;;
73599;SDS011;61877;48.246;9.220;2022-12-18T10:54:17;31.08;;;12.00;;
73599;SDS011;61877;48.246;9.220;2022-12-18T10:56:44;31.20;;;11.90;;
73599;SDS011;61877;48.246;9.220;2022-12-18T10:59:10;25.23;;;10.63;;
73599;SDS011;61877;48.246;9.220;2022-12-18T11:01:50;27.30;;;10.98;;
73599;SDS011;61877;48.246;9.220;2022-12-18T11:04:19;31.52;;;11.90;;
73599;SDS011;61877;48.246;9.220;2022-12-18T11:06:53;28.08;;;11.20;;
73599;SDS011;61877;48.246;9.220;2022-12-18T11:09:22;27.13;;;10.98;;
73599;SDS011;61877;48.246;9.220;2022-12-18T11:11:49;26.33;;;11.50;;
73599;SDS011;61877;48.246;9.220;2022-12-18T11:14:17;29.02;;;11.77;;
73599;SDS011;61877;48.246;9.220;2022-12-18T11:16:46;24.77;;;11.65;;
73599;SDS011;61877;48.246;9.220;2022-12-18T11:19:28;28.60;;;12.07;;
73599;SDS011;61877;48.246;9.220;2022-12-18T11:21:57;28.10;;;11.55;;
73599;SDS011;61877;48.246;9.220;2022-12-18T11:24:26;30.20;;;11.70;;
73599;SDS011;61877;48.246;9.220;2022-12-18T11:26:54;27.25;;;11.13;;
73599;SDS011;61877;48.246;9.220;2022-12-18T11:29:23;27.80;;;11.88;;
73599;SDS011;61877;48.246;9.220;2022-12-18T11:31:59;29.92;;;11.18;;
73599;SDS011;61877;48.246;9.220;2022-12-18T11:34:48;27.57;;;11.43;;
73599;SDS011;61877;48.246;9.220;2022-12-18T11:37:18;27.00;;;10.65;;
73599;SDS011;61877;48.246;9.220;2022-12-18T11:39:45;29.20;;;11.10;;
73599;SDS011;61877;48.246;9.220;2022-12-18T11:42:14;27.25;;;10.68;;
73599;SDS011;61877;48.246;9.220;2022-12-18T11:44:46;31.43;;;12.63;;
73599;SDS011;61877;48.246;9.220;2022-12-18T11:47:15;31.92;;;12.20;;
73599;SDS011;61877;48.246;9.220;2022-12-18T11:49:50;29.65;;;12.52;;
73599;SDS011;61877;48.246;9.220;2022-12-18T11:52:18;29.55;;;11.52;;
73599;SDS011;61877;48.246;9.220;2022-12-18T11:54:48;30.48;;;12.13;;
73599;SDS011;61877;48.246;9.220;2022-12-18T11:57:17;30.00;;;12.33;;
73599;SDS011;61877;48.246;9.220;2022-12-18T11:59:54;27.75;;;11.13;;
73599;SDS011;61877;48.246;9.220;2022-12-18T12:02:30;27.05;;;11.50;;
73599;SDS011;61877;48.246;9.220;2022-12-18T12:05:17;32.63;;;13.15;;
73599;SDS011;61877;48.246;9.220;2022-12-18T12:07:54;27.95;;;10.82;;
73599;SDS011;61877;48.246;9.220;2022-12-18T12:10:30;30.60;;;12.13;;
73599;SDS011;61877;48.246;9.220;2022-12-18T12:13:14;29.90;;;12.07;;
73599;SDS011;61877;48.246;9.220;2022-12-18T12:15:54;29.42;;;12.00;;
73599;SDS011;61877;48.246;9.220;2022-12-18T12:18:28;27.65;;;11.70;;
73599;SDS011;61877;48.246;9.220;2022-12-18T12:21:03;29.92;;;11.70;;
73599;SDS011;61877;48.246;9.220;2022-12-18T12:23:40;31.37;;;11.93;;
73599;SDS011;61877;48.246;9.220;2022-12-18T12:26:17;30.88;;;11.73;;
73599;SDS011;61877;48.246;9.220;2022-12-18T12:28:57;29.77;;;11.68;;
73599;SDS011;61877;48.246;9.220;2022-12-18T12:31:32;32.70;;;12.48;;
73599;SDS011;61877;48.246;9.220;2022-12-18T12:34:09;29.15;;;11.57;;
73599;SDS011;61877;48.246;9.220;2022-12-18T12:36:45;32.53;;;12.07;;
73599;SDS011;61877;48.246;9.220;2022-12-18T12:39:27;35.17;;;12.50;;
73599;SDS011;61877;48.246;9.220;2022-12-18T12:41:56;35.42;;;13.10;;
73599;SDS011;61877;48.246;9.220;2022-12-18T12:44:23;33.05;;;13.07;;
73599;SDS011;61877;48.246;9.220;2022-12-18T12:46:51;34.70;;;13.23;;
73599;SDS011;61877;48.246;9.220;2022-12-18T12:49:20;32.40;;;11.97;;
73599;SDS011;61877;48.246;9.220;2022-12-18T12:51:50;31.50;;;12.30;;
73599;SDS011;61877;48.246;9.220;2022-12-18T12:54:21;32.13;;;12.82;;
73599;SDS011;61877;48.246;9.220;2022-12-18T12:56:50;32.47;;;12.63;;
73599;SDS011;61877;48.246;9.220;2022-12-18T12:59:24;31.42;;;12.63;;
73599;SDS011;61877;48.246;9.220;2022-12-18T13:01:57;32.97;;;12.10;;
73599;SDS011;61877;48.246;9.220;2022-12-18T13:04:31;32.00;;;12.57;;
73599;SDS011;61877;48.246;9.220;2022-12-18T13:07:03;32.92;;;12.82;;
73599;SDS011;61877;48.246;9.220;2022-12-18T13:09:36;33.83;;;12.35;;
73599;SDS011;61877;48.246;9.220;2022-12-18T13:12:52;32.25;;;12.35;;
73599;SDS011;61877;48.246;9.220;2022-12-18T13:15:22;32.53;;;12.60;;
73599;SDS011;61877;48.246;9.220;2022-12-18T13:18:02;33.65;;;12.68;;
73599;SDS011;61877;48.246;9.220;2022-12-18T13:20:32;32.63;;;12.90;;
73599;SDS011;61877;48.246;9.220;2022-12-18T13:22:58;33.15;;;13.40;;
73599;SDS011;61877;48.246;9.220;2022-12-18T13:25:27;34.37;;;12.40;;
73599;SDS011;61877;48.246;9.220;2022-12-18T13:27:57;31.48;;;12.52;;
73599;SDS011;61877;48.246;9.220;2022-12-18T13:30:43;32.72;;;12.75;;
73599;SDS011;61877;48.246;9.220;2022-12-18T13:36:11;38.15;;;14.18;;
73599;SDS011;61877;48.246;9.220;2022-12-18T13:38:40;32.70;;;12.73;;
73599;SDS011;61877;48.246;9.220;2022-12-18T13:41:21;37.30;;;14.15;;
73599;SDS011;61877;48.246;9.220;2022-12-18T13:43:48;33.15;;;12.57;;
73599;SDS011;61877;48.246;9.220;2022-12-18T13:46:20;40.43;;;15.37;;
73599;SDS011;61877;48.246;9.220;2022-12-18T13:48:49;46.78;;;17.58;;
73599;SDS011;61877;48.246;9.220;2022-12-18T13:51:17;35.70;;;14.35;;
73599;SDS011;61877;48.246;9.220;2022-12-18T13:53:47;36.80;;;14.27;;
73599;SDS011;61877;48.246;9.220;2022-12-18T13:56:15;40.33;;;15.43;;
73599;SDS011;61877;48.246;9.220;2022-12-18T13:58:41;39.07;;;13.83;;
73599;SDS011;61877;48.246;9.220;2022-12-18T14:01:14;41.90;;;14.20;;
73599;SDS011;61877;48.246;9.220;2022-12-18T14:03:48;36.65;;;14.07;;
73599;SDS011;61877;48.246;9.220;2022-12-18T14:06:13;47.60;;;18.13;;
73599;SDS011;61877;48.246;9.220;2022-12-18T14:08:41;41.08;;;15.60;;
73599;SDS011;61877;48.246;9.220;2022-12-18T14:11:17;37.80;;;13.73;;
73599;SDS011;61877;48.246;9.220;2022-12-18T14:13:45;41.50;;;14.30;;
73599;SDS011;61877;48.246;9.220;2022-12-18T14:16:12;36.00;;;12.57;;
73599;SDS011;61877;48.246;9.220;2022-12-18T14:18:43;35.20;;;13.93;;
73599;SDS011;61877;48.246;9.220;2022-12-18T14:21:18;37.33;;;14.13;;
73599;SDS011;61877;48.246;9.220;2022-12-18T14:23:46;39.10;;;13.93;;
73599;SDS011;61877;48.246;9.220;2022-12-18T14:26:23;39.88;;;14.55;;
73599;SDS011;61877;48.246;9.220;2022-12-18T14:28:49;40.25;;;15.02;;
73599;SDS011;61877;48.246;9.220;2022-12-18T14:31:18;41.90;;;13.90;;
73599;SDS011;61877;48.246;9.220;2022-12-18T14:33:46;41.00;;;14.93;;
73599;SDS011;61877;48.246;9.220;2022-12-18T14:36:13;37.03;;;13.45;;
73599;SDS011;61877;48.246;9.220;2022-12-18T14:38:41;40.65;;;15.05;;
73599;SDS011;61877;48.246;9.220;2022-12-18T14:41:10;42.70;;;14.30;;
73599;SDS011;61877;48.246;9.220;2022-12-18T14:43:37;36.67;;;14.23;;
73599;SDS011;61877;48.246;9.220;2022-12-18T14:46:04;41.00;;;15.18;;
73599;SDS011;61877;48.246;9.220;2022-12-18T14:48:50;38.83;;;14.75;;
73599;SDS011;61877;48.246;9.220;2022-12-18T14:51:17;41.17;;;14.03;;